sensor_id;sensor_type;location;lat;lon;timestamp;pressure;altitude;pressure_sealevel;temperature;humidity
22572;BME280;11452;53.368;14.658;2024-03-22T00:00:04;101458.62;;;8.03;100.00
22572;BME280;11452;53.368;14.658;2024-03-22T00:05:12;101454.27;;;8.00;100.00
22572;BME280;11452;53.368;14.658;2024-03-22T00:10:18;101448.89;;;8.02;100.00
22572;BME280;11452;53.368;14.658;2024-03-22T00:15:23;101432.91;;;8.02;100.00
22572;BME280;11452;53.368;14.658;2024-03-22T00:20:29;101432.45;;;8.03;100.00
22572;BME280;11452;53.368;14.658;2024-03-22T00:25:36;101431.84;;;8.08;100.00
22572;BME280;11452;53.368;14.658;2024-03-22T00:30:42;101427.75;;;8.11;100.00
22572;BME280;11452;53.368;14.658;2024-03-22T00:35:48;101432.97;;;8.14;100.00
22572;BME280;11452;53.368;14.658;2024-03-22T00:40:54;101428.52;;;8.14;100.00
22572;BME280;11452;53.368;14.658;2024-03-22T00:45:59;101427.13;;;8.16;100.00
22572;BME280;11452;53.368;14.658;2024-03-22T00:51:07;101433.38;;;8.15;100.00
22572;BME280;11452;53.368;14.658;2024-03-22T00:56:12;101433.53;;;8.10;100.00
22572;BME280;11452;53.368;14.658;2024-03-22T01:01:18;101432.20;;;8.10;100.00
22572;BME280;11452;53.368;14.658;2024-03-22T01:06:24;101424.67;;;8.10;100.00
22572;BME280;11452;53.368;14.658;2024-03-22T01:11:31;101414.48;;;8.09;100.00
22572;BME280;11452;53.368;14.658;2024-03-22T01:16:37;101410.80;;;8.13;100.00
22572;BME280;11452;53.368;14.658;2024-03-22T01:21:44;101398.00;;;8.11;100.00
22572;BME280;11452;53.368;14.658;2024-03-22T01:26:49;101389.76;;;8.06;100.00
22572;BME280;11452;53.368;14.658;2024-03-22T01:31:55;101382.44;;;7.99;100.00
22572;BME280;11452;53.368;14.658;2024-03-22T01:37:01;101374.12;;;7.96;100.00
22572;BME280;11452;53.368;14.658;2024-03-22T01:42:07;101374.64;;;7.94;100.00
22572;BME280;11452;53.368;14.658;2024-03-22T01:47:13;101363.81;;;7.99;100.00
22572;BME280;11452;53.368;14.658;2024-03-22T01:52:18;101363.60;;;8.05;100.00
22572;BME280;11452;53.368;14.658;2024-03-22T01:57:24;101355.56;;;8.07;99.95
22572;BME280;11452;53.368;14.658;2024-03-22T02:02:30;101337.28;;;8.09;99.69
22572;BME280;11452;53.368;14.658;2024-03-22T02:07:35;101339.43;;;8.11;99.64
22572;BME280;11452;53.368;14.658;2024-03-22T02:12:41;101316.80;;;8.11;99.55
22572;BME280;11452;53.368;14.658;2024-03-22T02:17:47;101318.03;;;8.14;99.45
22572;BME280;11452;53.368;14.658;2024-03-22T02:22:53;101311.02;;;8.12;99.26
22572;BME280;11452;53.368;14.658;2024-03-22T02:27:59;101305.23;;;8.12;99.29
22572;BME280;11452;53.368;14.658;2024-03-22T02:33:05;101301.13;;;8.15;99.12
22572;BME280;11452;53.368;14.658;2024-03-22T02:38:10;101285.94;;;8.17;98.89
22572;BME280;11452;53.368;14.658;2024-03-22T02:43:16;101284.45;;;8.10;98.84
22572;BME280;11452;53.368;14.658;2024-03-22T02:48:23;101286.30;;;8.08;98.84
22572;BME280;11452;53.368;14.658;2024-03-22T02:53:29;101279.23;;;8.07;98.75
22572;BME280;11452;53.368;14.658;2024-03-22T02:58:35;101264.70;;;8.04;98.69
22572;BME280;11452;53.368;14.658;2024-03-22T03:03:41;101257.18;;;8.04;98.65
22572;BME280;11452;53.368;14.658;2024-03-22T03:08:47;101256.95;;;8.10;98.79
22572;BME280;11452;53.368;14.658;2024-03-22T03:13:52;101247.80;;;8.17;98.74
22572;BME280;11452;53.368;14.658;2024-03-22T03:18:58;101243.28;;;8.19;98.55
22572;BME280;11452;53.368;14.658;2024-03-22T03:24:06;101240.56;;;8.20;98.51
22572;BME280;11452;53.368;14.658;2024-03-22T03:29:13;101221.11;;;8.18;98.48
22572;BME280;11452;53.368;14.658;2024-03-22T03:34:19;101208.95;;;8.23;98.38
22572;BME280;11452;53.368;14.658;2024-03-22T03:39:25;101200.74;;;8.29;98.21
22572;BME280;11452;53.368;14.658;2024-03-22T03:44:30;101192.15;;;8.34;98.09
22572;BME280;11452;53.368;14.658;2024-03-22T03:49:36;101196.52;;;8.35;98.09
22572;BME280;11452;53.368;14.658;2024-03-22T03:54:42;101183.55;;;8.38;98.02
22572;BME280;11452;53.368;14.658;2024-03-22T03:59:47;101180.42;;;8.38;97.98
22572;BME280;11452;53.368;14.658;2024-03-22T04:04:54;101164.27;;;8.43;98.00
22572;BME280;11452;53.368;14.658;2024-03-22T04:09:59;101168.14;;;8.46;98.08
22572;BME280;11452;53.368;14.658;2024-03-22T04:15:06;101175.38;;;8.42;98.21
22572;BME280;11452;53.368;14.658;2024-03-22T04:20:12;101170.74;;;8.47;98.25
22572;BME280;11452;53.368;14.658;2024-03-22T04:25:18;101163.56;;;8.49;98.30
22572;BME280;11452;53.368;14.658;2024-03-22T04:30:24;101147.17;;;8.48;98.35
22572;BME280;11452;53.368;14.658;2024-03-22T04:35:30;101142.84;;;8.56;98.39
22572;BME280;11452;53.368;14.658;2024-03-22T04:40:36;101141.45;;;8.57;98.37
22572;BME280;11452;53.368;14.658;2024-03-22T04:45:43;101156.39;;;8.61;98.18
22572;BME280;11452;53.368;14.658;2024-03-22T04:50:50;101137.61;;;8.64;98.32
22572;BME280;11452;53.368;14.658;2024-03-22T04:55:55;101109.17;;;8.65;98.38
22572;BME280;11452;53.368;14.658;2024-03-22T05:01:01;101093.98;;;8.67;98.34
22572;BME280;11452;53.368;14.658;2024-03-22T05:06:07;101090.73;;;8.71;98.24
22572;BME280;11452;53.368;14.658;2024-03-22T05:11:13;101078.64;;;8.72;98.31
22572;BME280;11452;53.368;14.658;2024-03-22T05:16:18;101089.45;;;8.79;98.37
22572;BME280;11452;53.368;14.658;2024-03-22T05:21:24;101091.92;;;8.84;98.17
22572;BME280;11452;53.368;14.658;2024-03-22T05:26:30;101085.94;;;8.89;98.04
22572;BME280;11452;53.368;14.658;2024-03-22T05:31:45;101076.84;;;8.93;97.88
22572;BME280;11452;53.368;14.658;2024-03-22T05:36:46;101066.45;;;8.97;97.71
22572;BME280;11452;53.368;14.658;2024-03-22T05:41:52;101045.94;;;9.09;97.57
22572;BME280;11452;53.368;14.658;2024-03-22T05:46:58;101033.64;;;9.15;97.26
22572;BME280;11452;53.368;14.658;2024-03-22T05:52:05;101030.97;;;9.25;97.14
22572;BME280;11452;53.368;14.658;2024-03-22T05:57:11;101034.31;;;9.39;96.75
22572;BME280;11452;53.368;14.658;2024-03-22T06:02:17;101025.66;;;9.53;96.31
22572;BME280;11452;53.368;14.658;2024-03-22T06:07:22;101004.36;;;9.70;96.06
22572;BME280;11452;53.368;14.658;2024-03-22T06:12:28;101000.08;;;9.85;95.18
22572;BME280;11452;53.368;14.658;2024-03-22T06:17:34;100984.63;;;9.83;94.75
22572;BME280;11452;53.368;14.658;2024-03-22T06:22:39;100970.05;;;9.98;94.57
22572;BME280;11452;53.368;14.658;2024-03-22T06:27:45;100965.03;;;10.01;93.80
22572;BME280;11452;53.368;14.658;2024-03-22T06:32:51;100961.73;;;10.13;93.50
22572;BME280;11452;53.368;14.658;2024-03-22T06:37:56;100972.61;;;10.19;93.09
22572;BME280;11452;53.368;14.658;2024-03-22T06:43:02;100963.56;;;10.30;92.79
22572;BME280;11452;53.368;14.658;2024-03-22T06:48:07;100970.87;;;10.52;92.66
22572;BME280;11452;53.368;14.658;2024-03-22T06:53:13;100958.15;;;10.82;92.04
22572;BME280;11452;53.368;14.658;2024-03-22T06:58:19;100955.80;;;11.08;91.21
22572;BME280;11452;53.368;14.658;2024-03-22T07:03:24;100958.87;;;11.25;90.38
22572;BME280;11452;53.368;14.658;2024-03-22T07:08:30;100957.94;;;11.42;89.99
22572;BME280;11452;53.368;14.658;2024-03-22T07:13:36;100964.20;;;11.65;89.18
22572;BME280;11452;53.368;14.658;2024-03-22T07:18:42;100946.42;;;11.71;88.06
22572;BME280;11452;53.368;14.658;2024-03-22T07:23:48;100939.19;;;11.58;88.06
22572;BME280;11452;53.368;14.658;2024-03-22T07:28:53;100955.70;;;11.73;87.52
22572;BME280;11452;53.368;14.658;2024-03-22T07:33:59;100950.13;;;11.77;86.81
22572;BME280;11452;53.368;14.658;2024-03-22T07:39:05;100944.08;;;11.97;86.29
22572;BME280;11452;53.368;14.658;2024-03-22T07:44:14;100945.97;;;12.25;85.42
22572;BME280;11452;53.368;14.658;2024-03-22T07:49:21;100951.45;;;12.30;84.49
22572;BME280;11452;53.368;14.658;2024-03-22T07:54:27;100941.80;;;12.35;84.69
22572;BME280;11452;53.368;14.658;2024-03-22T07:59:33;100932.73;;;12.52;84.02
22572;BME280;11452;53.368;14.658;2024-03-22T08:04:39;100920.19;;;12.52;83.68
22572;BME280;11452;53.368;14.658;2024-03-22T08:09:45;100916.55;;;12.39;83.45
22572;BME280;11452;53.368;14.658;2024-03-22T08:14:51;100903.33;;;12.36;83.29
22572;BME280;11452;53.368;14.658;2024-03-22T08:19:56;100885.13;;;12.20;83.60
22572;BME280;11452;53.368;14.658;2024-03-22T08:25:02;100890.45;;;12.12;83.78
22572;BME280;11452;53.368;14.658;2024-03-22T08:30:10;100880.57;;;11.99;84.13
22572;BME280;11452;53.368;14.658;2024-03-22T08:35:16;100875.72;;;12.12;84.45
22572;BME280;11452;53.368;14.658;2024-03-22T08:40:21;100870.89;;;11.96;83.84
22572;BME280;11452;53.368;14.658;2024-03-22T08:45:27;100856.73;;;11.87;84.42
22572;BME280;11452;53.368;14.658;2024-03-22T08:50:33;100856.22;;;11.81;84.82
22572;BME280;11452;53.368;14.658;2024-03-22T08:55:47;100841.14;;;11.87;85.10
22572;BME280;11452;53.368;14.658;2024-03-22T09:00:53;100827.78;;;12.15;85.08
22572;BME280;11452;53.368;14.658;2024-03-22T09:06:00;100822.09;;;12.98;84.15
22572;BME280;11452;53.368;14.658;2024-03-22T09:11:08;100806.19;;;13.88;82.46
22572;BME280;11452;53.368;14.658;2024-03-22T09:16:14;100796.03;;;14.49;79.81
22572;BME280;11452;53.368;14.658;2024-03-22T09:21:20;100806.80;;;14.80;78.71
22572;BME280;11452;53.368;14.658;2024-03-22T09:26:26;100800.34;;;15.01;76.01
22572;BME280;11452;53.368;14.658;2024-03-22T09:31:32;100790.92;;;14.83;75.07
22572;BME280;11452;53.368;14.658;2024-03-22T09:36:37;100776.61;;;14.82;75.19
22572;BME280;11452;53.368;14.658;2024-03-22T09:41:44;100759.97;;;15.07;74.43
22572;BME280;11452;53.368;14.658;2024-03-22T09:46:52;100756.27;;;15.20;72.63
22572;BME280;11452;53.368;14.658;2024-03-22T09:51:58;100767.48;;;15.38;71.95
22572;BME280;11452;53.368;14.658;2024-03-22T09:57:04;100763.67;;;15.41;71.12
22572;BME280;11452;53.368;14.658;2024-03-22T10:02:12;100746.99;;;15.30;70.94
22572;BME280;11452;53.368;14.658;2024-03-22T10:07:18;100760.98;;;15.11;70.21
22572;BME280;11452;53.368;14.658;2024-03-22T10:12:24;100745.16;;;15.07;70.48
22572;BME280;11452;53.368;14.658;2024-03-22T10:17:30;100745.45;;;15.15;69.94
22572;BME280;11452;53.368;14.658;2024-03-22T10:22:36;100734.33;;;15.49;69.00
22572;BME280;11452;53.368;14.658;2024-03-22T10:27:41;100729.61;;;15.64;68.32
22572;BME280;11452;53.368;14.658;2024-03-22T10:32:51;100726.13;;;15.50;67.76
22572;BME280;11452;53.368;14.658;2024-03-22T10:37:57;100722.30;;;15.71;67.91
22572;BME280;11452;53.368;14.658;2024-03-22T10:43:03;100717.23;;;15.61;67.19
22572;BME280;11452;53.368;14.658;2024-03-22T10:48:10;100705.91;;;15.91;67.40
22572;BME280;11452;53.368;14.658;2024-03-22T10:53:21;100706.86;;;15.79;66.38
22572;BME280;11452;53.368;14.658;2024-03-22T10:58:29;100706.37;;;15.79;66.37
22572;BME280;11452;53.368;14.658;2024-03-22T11:03:35;100679.69;;;16.32;65.81
22572;BME280;11452;53.368;14.658;2024-03-22T11:08:41;100675.36;;;16.95;64.59
22572;BME280;11452;53.368;14.658;2024-03-22T11:13:48;100662.71;;;16.69;62.32
22572;BME280;11452;53.368;14.658;2024-03-22T11:18:53;100654.20;;;16.79;63.33
22572;BME280;11452;53.368;14.658;2024-03-22T11:24:03;100656.66;;;17.50;62.08
22572;BME280;11452;53.368;14.658;2024-03-22T11:29:09;100640.09;;;17.85;60.45
22572;BME280;11452;53.368;14.658;2024-03-22T11:34:14;100632.69;;;18.03;59.76
22572;BME280;11452;53.368;14.658;2024-03-22T11:39:22;100631.17;;;18.34;59.22
22572;BME280;11452;53.368;14.658;2024-03-22T11:44:28;100621.62;;;18.40;58.23
22572;BME280;11452;53.368;14.658;2024-03-22T11:49:34;100615.30;;;18.36;57.46
22572;BME280;11452;53.368;14.658;2024-03-22T11:54:40;100610.45;;;17.53;58.16
22572;BME280;11452;53.368;14.658;2024-03-22T11:59:46;100605.88;;;16.71;59.16
22572;BME280;11452;53.368;14.658;2024-03-22T12:04:53;100595.77;;;16.41;60.31
22572;BME280;11452;53.368;14.658;2024-03-22T12:09:59;100592.02;;;16.21;61.27
22572;BME280;11452;53.368;14.658;2024-03-22T12:15:05;100596.55;;;16.26;62.54
22572;BME280;11452;53.368;14.658;2024-03-22T12:20:11;100585.42;;;16.51;64.10
22572;BME280;11452;53.368;14.658;2024-03-22T12:25:18;100575.16;;;16.51;64.73
22572;BME280;11452;53.368;14.658;2024-03-22T12:30:24;100576.88;;;16.84;65.25
22572;BME280;11452;53.368;14.658;2024-03-22T12:35:30;100565.02;;;17.68;64.34
22572;BME280;11452;53.368;14.658;2024-03-22T12:40:37;100546.66;;;18.21;63.49
22572;BME280;11452;53.368;14.658;2024-03-22T12:45:43;100536.94;;;18.44;61.26
22572;BME280;11452;53.368;14.658;2024-03-22T12:50:49;100527.26;;;18.31;60.89
22572;BME280;11452;53.368;14.658;2024-03-22T12:55:55;100522.76;;;18.26;59.82
22572;BME280;11452;53.368;14.658;2024-03-22T13:01:01;100519.22;;;18.55;59.02
22572;BME280;11452;53.368;14.658;2024-03-22T13:06:07;100515.30;;;18.53;58.33
22572;BME280;11452;53.368;14.658;2024-03-22T13:11:13;100514.08;;;17.88;58.22
22572;BME280;11452;53.368;14.658;2024-03-22T13:16:19;100516.91;;;17.77;59.53
22572;BME280;11452;53.368;14.658;2024-03-22T13:21:24;100492.21;;;17.76;59.19
22572;BME280;11452;53.368;14.658;2024-03-22T13:26:31;100500.37;;;17.71;59.14
22572;BME280;11452;53.368;14.658;2024-03-22T13:31:37;100489.02;;;17.01;59.45
22572;BME280;11452;53.368;14.658;2024-03-22T13:36:44;100484.39;;;16.23;61.13
22572;BME280;11452;53.368;14.658;2024-03-22T13:41:51;100484.67;;;15.72;62.51
22572;BME280;11452;53.368;14.658;2024-03-22T13:46:57;100494.70;;;15.25;64.28
22572;BME280;11452;53.368;14.658;2024-03-22T13:52:03;100487.94;;;14.80;65.63
22572;BME280;11452;53.368;14.658;2024-03-22T13:57:13;100491.52;;;14.51;67.46
22572;BME280;11452;53.368;14.658;2024-03-22T14:02:19;100490.45;;;14.36;68.69
22572;BME280;11452;53.368;14.658;2024-03-22T14:07:24;100489.80;;;14.21;69.72
22572;BME280;11452;53.368;14.658;2024-03-22T14:12:31;100479.38;;;14.16;71.13
22572;BME280;11452;53.368;14.658;2024-03-22T14:17:37;100475.72;;;14.17;72.10
22572;BME280;11452;53.368;14.658;2024-03-22T14:22:43;100459.48;;;14.19;72.90
22572;BME280;11452;53.368;14.658;2024-03-22T14:27:50;100456.45;;;14.24;73.09
22572;BME280;11452;53.368;14.658;2024-03-22T14:32:56;100443.01;;;14.24;73.56
22572;BME280;11452;53.368;14.658;2024-03-22T14:38:02;100439.83;;;14.30;73.98
22572;BME280;11452;53.368;14.658;2024-03-22T14:43:08;100436.89;;;14.21;74.47
22572;BME280;11452;53.368;14.658;2024-03-22T14:48:15;100433.52;;;14.01;75.11
22572;BME280;11452;53.368;14.658;2024-03-22T14:53:21;100429.81;;;13.91;75.99
22572;BME280;11452;53.368;14.658;2024-03-22T14:58:28;100426.78;;;13.72;76.98
22572;BME280;11452;53.368;14.658;2024-03-22T15:03:35;100424.66;;;13.64;78.33
22572;BME280;11452;53.368;14.658;2024-03-22T15:08:41;100412.38;;;13.55;79.84
22572;BME280;11452;53.368;14.658;2024-03-22T15:13:47;100414.94;;;13.50;80.78
22572;BME280;11452;53.368;14.658;2024-03-22T15:18:52;100413.39;;;13.35;81.27
22572;BME280;11452;53.368;14.658;2024-03-22T15:23:58;100414.26;;;13.23;81.73
22572;BME280;11452;53.368;14.658;2024-03-22T15:29:04;100401.70;;;13.11;82.25
22572;BME280;11452;53.368;14.658;2024-03-22T15:34:10;100405.03;;;13.14;82.79
22572;BME280;11452;53.368;14.658;2024-03-22T15:39:16;100402.67;;;13.10;82.87
22572;BME280;11452;53.368;14.658;2024-03-22T15:44:24;100406.43;;;13.07;83.16
22572;BME280;11452;53.368;14.658;2024-03-22T15:49:30;100397.72;;;12.98;83.41
22572;BME280;11452;53.368;14.658;2024-03-22T15:54:36;100395.95;;;12.92;84.00
22572;BME280;11452;53.368;14.658;2024-03-22T15:59:42;100393.91;;;12.82;84.61
22572;BME280;11452;53.368;14.658;2024-03-22T16:04:49;100381.73;;;12.84;84.90
22572;BME280;11452;53.368;14.658;2024-03-22T16:09:56;100373.28;;;12.77;85.61
22572;BME280;11452;53.368;14.658;2024-03-22T16:15:01;100369.58;;;12.73;86.18
22572;BME280;11452;53.368;14.658;2024-03-22T16:20:10;100366.09;;;12.65;86.90
22572;BME280;11452;53.368;14.658;2024-03-22T16:25:16;100373.45;;;12.56;87.99
22572;BME280;11452;53.368;14.658;2024-03-22T16:30:22;100371.03;;;12.46;89.24
22572;BME280;11452;53.368;14.658;2024-03-22T16:35:27;100371.75;;;12.42;89.54
22572;BME280;11452;53.368;14.658;2024-03-22T16:40:33;100375.60;;;12.38;90.36
22572;BME280;11452;53.368;14.658;2024-03-22T16:45:39;100372.48;;;12.32;90.50
22572;BME280;11452;53.368;14.658;2024-03-22T16:50:45;100371.17;;;12.25;91.98
22572;BME280;11452;53.368;14.658;2024-03-22T16:55:51;100372.31;;;12.15;92.64
22572;BME280;11452;53.368;14.658;2024-03-22T17:01:07;100376.53;;;12.12;93.50
22572;BME280;11452;53.368;14.658;2024-03-22T17:06:13;100370.38;;;12.04;94.59
22572;BME280;11452;53.368;14.658;2024-03-22T17:11:21;100368.11;;;11.98;94.92
22572;BME280;11452;53.368;14.658;2024-03-22T17:16:26;100372.91;;;11.93;96.50
22572;BME280;11452;53.368;14.658;2024-03-22T17:21:32;100373.34;;;11.87;97.27
22572;BME280;11452;53.368;14.658;2024-03-22T17:26:38;100372.31;;;11.83;97.88
22572;BME280;11452;53.368;14.658;2024-03-22T17:31:46;100376.24;;;11.77;99.01
22572;BME280;11452;53.368;14.658;2024-03-22T17:36:53;100383.97;;;11.74;100.00
22572;BME280;11452;53.368;14.658;2024-03-22T17:41:59;100379.67;;;11.72;100.00
22572;BME280;11452;53.368;14.658;2024-03-22T17:47:07;100373.20;;;11.69;100.00
22572;BME280;11452;53.368;14.658;2024-03-22T17:52:14;100373.03;;;11.65;100.00
22572;BME280;11452;53.368;14.658;2024-03-22T17:57:20;100373.61;;;11.63;100.00
22572;BME280;11452;53.368;14.658;2024-03-22T18:02:29;100376.08;;;11.66;100.00
22572;BME280;11452;53.368;14.658;2024-03-22T18:07:35;100366.81;;;11.64;100.00
22572;BME280;11452;53.368;14.658;2024-03-22T18:12:40;100374.65;;;11.67;100.00
22572;BME280;11452;53.368;14.658;2024-03-22T18:17:46;100369.67;;;11.68;100.00
22572;BME280;11452;53.368;14.658;2024-03-22T18:22:53;100361.94;;;11.64;100.00
22572;BME280;11452;53.368;14.658;2024-03-22T18:28:00;100355.73;;;11.63;100.00
22572;BME280;11452;53.368;14.658;2024-03-22T18:33:05;100350.86;;;11.63;100.00
22572;BME280;11452;53.368;14.658;2024-03-22T18:38:12;100356.51;;;11.58;100.00
22572;BME280;11452;53.368;14.658;2024-03-22T18:43:18;100359.66;;;11.58;100.00
22572;BME280;11452;53.368;14.658;2024-03-22T18:48:23;100360.72;;;11.55;100.00
22572;BME280;11452;53.368;14.658;2024-03-22T18:53:30;100362.53;;;11.55;100.00
22572;BME280;11452;53.368;14.658;2024-03-22T18:58:35;100355.65;;;11.58;100.00
22572;BME280;11452;53.368;14.658;2024-03-22T19:03:41;100354.79;;;11.57;100.00
22572;BME280;11452;53.368;14.658;2024-03-22T19:08:47;100327.84;;;11.53;100.00
22572;BME280;11452;53.368;14.658;2024-03-22T19:13:53;100338.78;;;11.50;100.00
22572;BME280;11452;53.368;14.658;2024-03-22T19:18:59;100340.12;;;11.50;100.00
22572;BME280;11452;53.368;14.658;2024-03-22T19:24:05;100340.70;;;11.48;100.00
22572;BME280;11452;53.368;14.658;2024-03-22T19:29:13;100340.22;;;11.49;100.00
22572;BME280;11452;53.368;14.658;2024-03-22T19:34:18;100338.27;;;11.51;100.00
22572;BME280;11452;53.368;14.658;2024-03-22T19:39:24;100341.70;;;11.53;100.00
22572;BME280;11452;53.368;14.658;2024-03-22T19:44:31;100347.05;;;11.53;100.00
22572;BME280;11452;53.368;14.658;2024-03-22T19:49:36;100325.88;;;11.50;100.00
22572;BME280;11452;53.368;14.658;2024-03-22T19:54:42;100334.87;;;11.49;100.00
22572;BME280;11452;53.368;14.658;2024-03-22T19:59:48;100342.99;;;11.47;100.00
22572;BME280;11452;53.368;14.658;2024-03-22T20:04:55;100323.88;;;11.46;100.00
22572;BME280;11452;53.368;14.658;2024-03-22T20:10:01;100329.83;;;11.37;100.00
22572;BME280;11452;53.368;14.658;2024-03-22T20:15:08;100325.44;;;11.36;100.00
22572;BME280;11452;53.368;14.658;2024-03-22T20:20:15;100329.06;;;11.35;100.00
22572;BME280;11452;53.368;14.658;2024-03-22T20:25:21;100329.16;;;11.33;100.00
22572;BME280;11452;53.368;14.658;2024-03-22T20:30:29;100319.55;;;11.31;100.00
22572;BME280;11452;53.368;14.658;2024-03-22T20:35:35;100330.45;;;11.28;100.00
